Time;durP1;ratioP1;P1;durP2;ratioP2;P2;SDS_P1;SDS_P2;PMS_P1;PMS_P2;Temp;Humidity;BMP_temperature;BMP_pressure;BME280_temperature;BME280_humidity;BME280_pressure;Samples;Min_cycle;Max_cycle;Signal;HPM_P1;HPM_P2
2022/09/05 00:02:01;;;;;;;0.10;0.10;;;16.90;99.90;;;;;;5099333;28;20434;-89
2022/09/05 00:04:31;;;;;;;0.10;0.10;;;16.90;99.90;;;;;;5093969;28;20433;-90
2022/09/05 00:07:35;;;;;;;0.10;0.10;;;16.90;99.90;;;;;;5096311;28;21140;-90
2022/09/05 00:10:17;;;;;;;0.10;0.10;;;16.90;99.90;;;;;;5089100;28;20444;-89
2022/09/05 00:12:45;;;;;;;0.10;0.10;;;16.90;99.90;;;;;;5105815;27;21212;-88
2022/09/05 00:15:17;;;;;;;0.10;0.10;;;16.80;99.90;;;;;;5094314;28;20501;-89
2022/09/05 00:17:58;;;;;;;0.10;0.10;;;16.90;99.90;;;;;;5100695;28;20471;-91
2022/09/05 00:20:45;;;;;;;0.10;0.10;;;16.80;99.90;;;;;;5095474;28;20952;-88
2022/09/05 00:23:29;;;;;;;0.10;0.10;;;16.90;99.90;;;;;;5101019;28;20440;-90
2022/09/05 00:26:12;;;;;;;0.10;0.10;;;16.90;99.90;;;;;;5094898;28;20451;-90
2022/09/05 00:29:16;;;;;;;0.10;0.10;;;16.90;99.90;;;;;;5099935;28;20482;-88
2022/09/05 00:31:48;;;;;;;0.10;0.10;;;16.90;99.90;;;;;;5100925;28;20451;-86
2022/09/05 00:34:26;;;;;;;0.10;0.10;;;17.00;99.90;;;;;;5087141;28;20489;-90
2022/09/05 00:36:53;;;;;;;0.10;0.10;;;17.00;99.90;;;;;;5099205;28;20438;-87
2022/09/05 00:39:28;;;;;;;0.10;0.10;;;17.00;99.90;;;;;;5096371;28;20550;-90
2022/09/05 00:41:58;;;;;;;0.10;0.10;;;17.00;99.90;;;;;;5086426;28;20791;-90
2022/09/05 00:44:27;;;;;;;0.10;0.10;;;17.00;99.90;;;;;;5077641;28;20458;-88
2022/09/05 00:47:09;;;;;;;0.10;0.10;;;16.90;99.90;;;;;;5089506;28;20446;-89
2022/09/05 00:49:51;;;;;;;0.10;0.10;;;16.90;99.90;;;;;;5099534;27;20453;-87
2022/09/05 00:52:41;;;;;;;0.10;0.10;;;17.00;99.90;;;;;;5094678;27;20438;-89
2022/09/05 00:55:13;;;;;;;0.10;0.10;;;16.90;99.90;;;;;;5086710;28;20434;-89
2022/09/05 00:57:53;;;;;;;0.10;0.10;;;16.90;99.90;;;;;;5100746;27;20556;-90
2022/09/05 01:00:36;;;;;;;0.10;0.10;;;16.90;99.90;;;;;;5099599;27;20437;-88
2022/09/05 01:03:34;;;;;;;0.10;0.10;;;16.80;99.90;;;;;;5090647;27;20438;-89
2022/09/05 01:06:37;;;;;;;0.10;0.10;;;16.90;99.90;;;;;;5102295;28;20458;-87
2022/09/05 01:09:20;;;;;;;0.10;0.10;;;16.90;99.90;;;;;;5106286;28;20439;-88
2022/09/05 01:11:59;;;;;;;0.10;0.10;;;16.90;99.90;;;;;;5104481;28;20990;-87
2022/09/05 01:14:45;;;;;;;0.10;0.10;;;17.00;99.90;;;;;;5100517;28;20992;-89
2022/09/05 01:17:22;;;;;;;0.10;0.10;;;17.00;99.90;;;;;;5078526;28;21024;-89
2022/09/05 01:20:12;;;;;;;0.10;0.10;;;16.90;99.90;;;;;;5094786;28;20485;-87
2022/09/05 01:22:59;;;;;;;0.10;0.10;;;16.90;99.90;;;;;;5099295;28;20483;-89
2022/09/05 01:25:50;;;;;;;0.10;0.10;;;17.00;99.90;;;;;;5104031;28;21266;-91
2022/09/05 01:28:29;;;;;;;0.10;0.10;;;17.00;99.90;;;;;;5092829;28;20448;-89
2022/09/05 01:31:22;;;;;;;0.10;0.10;;;17.00;99.90;;;;;;5103896;27;20441;-89
2022/09/05 01:33:53;;;;;;;0.10;0.10;;;17.00;99.90;;;;;;5080252;28;20509;-87
2022/09/05 01:37:12;;;;;;;0.10;0.10;;;17.00;99.90;;;;;;5094572;28;20429;-86
2022/09/05 01:40:01;;;;;;;0.10;0.10;;;16.90;99.90;;;;;;5045977;28;20450;-91
2022/09/05 01:42:37;;;;;;;0.10;0.10;;;17.00;99.90;;;;;;5105927;27;20855;-90
2022/09/05 01:45:46;;;;;;;0.10;0.10;;;16.90;99.90;;;;;;5103139;27;20441;-90
2022/09/05 01:48:42;;;;;;;0.10;0.10;;;16.80;99.90;;;;;;5067769;27;20466;-91
2022/09/05 01:51:31;;;;;;;0.10;0.10;;;16.80;99.90;;;;;;5080800;28;20470;-90
2022/09/05 01:54:18;;;;;;;0.10;0.10;;;16.80;99.90;;;;;;5107920;27;20486;-88
2022/09/05 01:56:58;;;;;;;0.10;0.10;;;16.80;99.90;;;;;;5103700;27;21001;-89
2022/09/05 01:59:56;;;;;;;0.10;0.10;;;16.70;99.90;;;;;;5079357;28;20473;-90
2022/09/05 02:02:59;;;;;;;0.10;0.10;;;16.50;99.90;;;;;;5105422;27;20466;-91
2022/09/05 02:05:36;;;;;;;0.10;0.10;;;16.60;99.90;;;;;;5101887;28;20441;-90
2022/09/05 02:08:16;;;;;;;0.10;0.10;;;16.50;99.90;;;;;;5100547;28;20430;-90
2022/09/05 02:10:53;;;;;;;0.10;0.10;;;16.40;99.90;;;;;;5094882;28;20449;-86
2022/09/05 02:13:41;;;;;;;0.10;0.10;;;16.40;99.90;;;;;;5093838;27;20481;-91
2022/09/05 02:16:09;;;;;;;0.10;0.10;;;16.50;99.90;;;;;;5104232;28;20442;-90
2022/09/05 02:19:04;;;;;;;0.10;0.10;;;16.50;99.90;;;;;;5081716;28;20454;-90
2022/09/05 02:21:34;;;;;;;0.10;0.10;;;16.40;99.90;;;;;;5083980;28;20455;-90
2022/09/05 02:24:42;;;;;;;0.10;0.10;;;16.40;99.90;;;;;;5090472;28;20462;-90
2022/09/05 02:27:40;;;;;;;0.10;0.10;;;16.40;99.90;;;;;;5045224;28;20444;-89
2022/09/05 02:30:14;;;;;;;0.10;0.10;;;16.30;99.90;;;;;;5059154;28;20823;-89
2022/09/05 02:32:57;;;;;;;0.10;0.10;;;16.30;99.90;;;;;;5084489;28;20511;-90
2022/09/05 02:35:54;;;;;;;0.10;0.10;;;16.20;99.90;;;;;;5101674;27;20517;-89
2022/09/05 02:38:35;;;;;;;0.10;0.10;;;16.20;99.90;;;;;;5077882;28;20442;-88
2022/09/05 02:41:24;;;;;;;0.10;0.10;;;16.20;99.90;;;;;;5094437;28;20446;-90
2022/09/05 02:44:01;;;;;;;0.10;0.10;;;16.20;99.90;;;;;;5090351;27;21227;-89
2022/09/05 02:47:07;;;;;;;0.10;0.10;;;16.10;99.90;;;;;;5106941;28;21024;-90
2022/09/05 02:50:00;;;;;;;0.10;0.10;;;16.10;99.90;;;;;;5103489;28;20534;-89
2022/09/05 02:52:29;;;;;;;0.10;0.10;;;16.10;99.90;;;;;;5102157;28;20444;-89
2022/09/05 02:54:57;;;;;;;0.10;0.10;;;16.10;99.90;;;;;;5095035;28;20445;-90
2022/09/05 02:57:42;;;;;;;0.10;0.10;;;16.00;99.90;;;;;;5106035;27;21709;-88
2022/09/05 03:00:24;;;;;;;0.10;0.10;;;16.10;99.90;;;;;;5101596;27;20430;-90
2022/09/05 03:03:28;;;;;;;0.10;0.10;;;16.10;99.90;;;;;;5110713;28;20449;-89
2022/09/05 03:06:07;;;;;;;0.10;0.10;;;15.90;99.90;;;;;;5093695;27;20466;-90
2022/09/05 03:09:10;;;;;;;0.10;0.10;;;15.90;99.90;;;;;;5096513;27;20525;-90
2022/09/05 03:12:04;;;;;;;0.10;0.10;;;16.00;99.90;;;;;;5102358;28;20843;-90
2022/09/05 03:14:49;;;;;;;0.10;0.10;;;15.90;99.90;;;;;;5093615;28;20598;-91
2022/09/05 03:17:23;;;;;;;0.10;0.10;;;15.90;99.90;;;;;;5102590;28;20442;-90
2022/09/05 03:20:31;;;;;;;0.10;0.10;;;15.80;99.90;;;;;;5107536;28;20448;-89
2022/09/05 03:23:21;;;;;;;0.10;0.10;;;15.90;99.90;;;;;;5095728;28;20438;-90
2022/09/05 03:26:25;;;;;;;0.10;0.10;;;15.70;99.90;;;;;;5089253;27;20446;-90
2022/09/05 03:29:17;;;;;;;0.10;0.10;;;15.70;99.90;;;;;;5099306;28;20445;-90
2022/09/05 03:32:12;;;;;;;0.10;0.10;;;15.70;99.90;;;;;;5097848;28;20445;-89
2022/09/05 03:34:55;;;;;;;0.10;0.10;;;15.70;99.90;;;;;;5031416;28;20486;-89
2022/09/05 03:38:06;;;;;;;0.10;0.10;;;15.50;99.90;;;;;;5107287;27;20948;-90
2022/09/05 03:40:35;;;;;;;0.10;0.10;;;15.60;99.90;;;;;;5100107;28;20442;-90
2022/09/05 03:43:26;;;;;;;0.10;0.10;;;15.60;99.90;;;;;;5101280;28;22672;-90
2022/09/05 03:46:25;;;;;;;0.10;0.10;;;15.60;99.90;;;;;;5092948;28;20438;-90
2022/09/05 03:49:17;;;;;;;0.10;0.10;;;15.50;99.90;;;;;;5104173;28;20476;-90
2022/09/05 03:52:05;;;;;;;0.10;0.10;;;15.70;99.90;;;;;;5107128;27;20434;-90
2022/09/05 03:54:58;;;;;;;0.10;0.10;;;15.50;99.90;;;;;;5072174;28;20585;-90
2022/09/05 03:57:30;;;;;;;0.10;0.10;;;15.50;99.90;;;;;;5104641;28;20435;-89
2022/09/05 04:00:10;;;;;;;0.10;0.10;;;15.50;99.90;;;;;;5087357;27;20469;-90
2022/09/05 04:02:50;;;;;;;0.10;0.10;;;15.50;99.90;;;;;;5099135;28;20446;-90
2022/09/05 04:05:26;;;;;;;0.10;0.10;;;15.40;99.90;;;;;;5085299;28;20450;-91
2022/09/05 04:07:59;;;;;;;0.10;0.10;;;15.30;99.90;;;;;;5094832;27;20445;-89
2022/09/05 04:10:35;;;;;;;0.10;0.10;;;15.30;99.90;;;;;;5103892;27;20438;-90
2022/09/05 04:13:08;;;;;;;0.10;0.10;;;15.30;99.90;;;;;;5097008;28;21747;-90
2022/09/05 04:15:42;;;;;;;0.10;0.10;;;15.40;99.90;;;;;;5081202;28;20442;-90
2022/09/05 04:18:16;;;;;;;0.10;0.10;;;15.30;99.90;;;;;;5093067;28;20829;-90
2022/09/05 04:21:05;;;;;;;0.10;0.10;;;15.30;99.90;;;;;;5107593;28;20445;-89
2022/09/05 04:23:44;;;;;;;0.10;0.10;;;15.30;99.90;;;;;;5082531;28;20517;-90
2022/09/05 04:26:15;;;;;;;0.10;0.10;;;15.40;99.90;;;;;;5092197;28;20949;-90
2022/09/05 04:29:13;;;;;;;0.10;0.10;;;15.40;99.90;;;;;;5104187;28;20438;-91
2022/09/05 04:32:05;;;;;;;0.10;0.10;;;15.40;99.90;;;;;;5101957;28;20794;-90
2022/09/05 04:34:57;;;;;;;0.10;0.10;;;15.30;99.90;;;;;;5093329;28;20521;-89
2022/09/05 04:37:58;;;;;;;0.10;0.10;;;15.40;99.90;;;;;;5093923;28;20464;-89
2022/09/05 04:40:48;;;;;;;0.10;0.10;;;15.40;99.90;;;;;;5101700;28;20972;-90
2022/09/05 04:43:16;;;;;;;0.10;0.10;;;15.50;99.90;;;;;;5093947;28;20441;-90
2022/09/05 04:45:47;;;;;;;0.10;0.10;;;15.50;99.90;;;;;;5098174;28;21133;-89
2022/09/05 04:48:19;;;;;;;0.10;0.10;;;15.50;99.90;;;;;;5084140;28;20486;-91
2022/09/05 04:51:00;;;;;;;0.10;0.10;;;15.60;99.90;;;;;;5082707;28;20438;-90
2022/09/05 04:54:10;;;;;;;0.10;0.10;;;15.60;99.90;;;;;;5094704;28;20576;-90
2022/09/05 04:56:41;;;;;;;0.10;0.10;;;15.60;99.90;;;;;;5097974;28;20522;-89
2022/09/05 04:59:22;;;;;;;0.10;0.10;;;15.70;99.90;;;;;;5100544;28;20526;-87
2022/09/05 05:02:11;;;;;;;0.10;0.10;;;15.80;99.90;;;;;;5103346;28;20487;-90
2022/09/05 05:04:36;;;;;;;0.10;0.10;;;15.70;99.90;;;;;;5071250;28;20810;-90
2022/09/05 05:07:26;;;;;;;0.10;0.10;;;15.80;99.90;;;;;;5093383;28;20446;-90
2022/09/05 05:09:57;;;;;;;0.10;0.10;;;15.80;99.90;;;;;;5094773;28;20185;-90
2022/09/05 05:12:51;;;;;;;0.10;0.10;;;15.90;99.90;;;;;;5100666;28;20462;-91
2022/09/05 05:15:21;;;;;;;0.10;0.10;;;16.00;99.90;;;;;;5102071;28;20447;-91
2022/09/05 05:18:04;;;;;;;0.10;0.10;;;16.00;99.90;;;;;;5110359;28;20544;-90
2022/09/05 05:20:40;;;;;;;0.10;0.10;;;16.10;99.90;;;;;;5104906;28;20924;-90
2022/09/05 05:23:31;;;;;;;0.10;0.10;;;16.00;99.90;;;;;;5107986;28;20498;-90
2022/09/05 05:26:01;;;;;;;0.10;0.10;;;16.10;99.90;;;;;;5093616;28;20439;-89
2022/09/05 05:28:56;;;;;;;0.10;0.10;;;16.20;99.90;;;;;;5101276;28;20438;-92
2022/09/05 05:31:28;;;;;;;0.10;0.10;;;16.20;99.90;;;;;;5104486;28;20429;-88
2022/09/05 05:34:16;;;;;;;0.10;0.10;;;16.30;99.90;;;;;;5110155;28;20512;-88
2022/09/05 05:37:11;;;;;;;0.10;0.10;;;16.30;99.90;;;;;;5112543;28;20925;-91
2022/09/05 05:39:43;;;;;;;0.10;0.10;;;16.30;99.90;;;;;;5078273;28;20442;-91
2022/09/05 05:42:16;;;;;;;0.10;0.10;;;16.40;99.90;;;;;;5093403;28;21270;-92
2022/09/05 05:44:48;;;;;;;0.10;0.10;;;16.40;99.90;;;;;;5110923;27;20496;-91
2022/09/05 05:47:25;;;;;;;0.10;0.10;;;16.50;99.90;;;;;;5112542;28;20822;-92
2022/09/05 05:49:59;;;;;;;0.10;0.10;;;16.50;99.90;;;;;;5099926;28;20822;-91
2022/09/05 05:53:16;;;;;;;0.10;0.10;;;16.50;99.90;;;;;;5113871;27;20441;-91
2022/09/05 05:55:59;;;;;;;0.10;0.10;;;16.60;99.90;;;;;;5040623;28;20867;-90
2022/09/05 05:59:02;;;;;;;0.10;0.10;;;16.60;99.90;;;;;;5111989;28;20490;-90
2022/09/05 06:02:01;;;;;;;0.10;0.10;;;16.70;99.90;;;;;;5055170;28;20446;-90
2022/09/05 06:04:59;;;;;;;0.10;0.10;;;16.70;99.90;;;;;;5093184;28;20414;-93
2022/09/05 06:07:53;;;;;;;0.10;0.10;;;16.80;99.90;;;;;;5112589;28;20472;-94
2022/09/05 06:10:56;;;;;;;0.10;0.10;;;16.90;99.90;;;;;;5105430;27;20447;-90
2022/09/05 06:14:00;;;;;;;0.10;0.10;;;16.90;99.90;;;;;;5102654;28;20509;-90
2022/09/05 06:16:53;;;;;;;0.10;0.10;;;17.00;99.90;;;;;;5103398;28;20452;-90
2022/09/05 06:19:50;;;;;;;0.10;0.10;;;17.10;99.90;;;;;;5134146;27;20821;-91
2022/09/05 06:22:24;;;;;;;0.10;0.10;;;17.20;99.90;;;;;;5125211;27;20477;-89
2022/09/05 06:24:56;;;;;;;0.10;0.10;;;17.20;99.90;;;;;;5111206;27;20433;-93
2022/09/05 06:27:37;;;;;;;0.10;0.10;;;17.30;99.90;;;;;;5119539;27;20434;-92
2022/09/05 06:30:08;;;;;;;0.10;0.10;;;17.50;99.90;;;;;;5111391;28;20433;-92
2022/09/05 06:33:01;;;;;;;0.10;0.10;;;17.60;99.90;;;;;;5112966;28;20430;-93
2022/09/05 06:35:54;;;;;;;0.10;0.10;;;17.70;99.90;;;;;;5091269;28;20449;-90
2022/09/05 06:38:41;;;;;;;0.10;0.10;;;17.70;99.90;;;;;;5100174;28;20974;-93
2022/09/05 06:41:12;;;;;;;0.10;0.10;;;17.70;99.90;;;;;;5105215;28;20474;-93
2022/09/05 06:44:18;;;;;;;0.10;0.10;;;17.70;99.90;;;;;;5102657;28;20442;-90
2022/09/05 06:46:45;;;;;;;0.10;0.10;;;17.70;99.90;;;;;;5067789;28;20434;-90
2022/09/05 06:49:16;;;;;;;0.10;0.10;;;17.80;99.90;;;;;;5110721;28;20422;-90
2022/09/05 06:52:35;;;;;;;0.10;0.10;;;17.70;99.90;;;;;;5094599;28;20800;-91
2022/09/05 06:55:23;;;;;;;0.10;0.10;;;17.70;99.90;;;;;;5069770;28;20473;-88
2022/09/05 06:58:40;;;;;;;0.10;0.10;;;17.70;99.90;;;;;;5107127;28;20910;-91
2022/09/05 07:01:08;;;;;;;0.10;0.10;;;17.80;99.90;;;;;;5110955;28;20449;-91
2022/09/05 07:03:56;;;;;;;0.10;0.10;;;17.90;99.90;;;;;;5105239;28;20422;-95
2022/09/05 07:06:48;;;;;;;0.10;0.10;;;17.90;99.90;;;;;;5109310;28;20848;-89
2022/09/05 07:09:32;;;;;;;0.10;0.10;;;17.90;99.90;;;;;;5110479;28;20438;-91
2022/09/05 07:12:14;;;;;;;0.10;0.10;;;17.80;99.90;;;;;;5097921;27;20530;-91
2022/09/05 07:15:01;;;;;;;0.10;0.10;;;17.90;99.90;;;;;;5101834;28;21020;-89
2022/09/05 07:17:43;;;;;;;0.10;0.10;;;17.90;99.90;;;;;;5114323;27;20510;-91
2022/09/05 07:20:47;;;;;;;0.10;0.10;;;17.90;99.90;;;;;;5077558;28;20466;-91
2022/09/05 07:23:28;;;;;;;0.10;0.10;;;18.00;99.90;;;;;;5090009;28;20905;-90
2022/09/05 07:25:54;;;;;;;0.10;0.10;;;18.20;99.90;;;;;;5088852;28;20963;-88
2022/09/05 07:28:21;;;;;;;0.10;0.10;;;18.20;99.90;;;;;;5104158;27;20442;-94
2022/09/05 07:30:49;;;;;;;0.10;0.10;;;18.20;99.90;;;;;;5104679;28;20960;-94
2022/09/05 07:33:20;;;;;;;0.10;0.10;;;18.50;99.90;;;;;;5106301;28;20493;-86
2022/09/05 07:35:47;;;;;;;0.10;0.10;;;18.70;99.90;;;;;;5086543;28;20438;-89
2022/09/05 07:38:22;;;;;;;0.10;0.10;;;18.90;99.90;;;;;;5109620;28;20474;-89
2022/09/05 07:40:54;;;;;;;0.10;0.10;;;19.10;99.90;;;;;;5103419;27;20480;-90
2022/09/05 07:43:26;;;;;;;0.10;0.10;;;19.20;99.90;;;;;;5090305;28;21282;-90
2022/09/05 07:46:16;;;;;;;0.10;0.00;;;19.10;99.90;;;;;;5089606;28;20934;-88
2022/09/05 07:49:01;;;;;;;0.10;0.10;;;18.90;99.90;;;;;;5102926;28;20449;-89
2022/09/05 07:51:31;;;;;;;0.10;0.00;;;18.80;99.90;;;;;;5107148;27;20444;-89
2022/09/05 07:54:02;;;;;;;0.10;0.10;;;18.80;99.90;;;;;;5106441;27;20527;-87
2022/09/05 07:56:49;;;;;;;0.10;0.10;;;18.90;99.90;;;;;;5083325;28;20434;-89
2022/09/05 07:59:16;;;;;;;0.10;0.00;;;18.80;99.90;;;;;;5101317;28;21232;-88
2022/09/05 08:01:44;;;;;;;0.10;0.10;;;18.90;99.90;;;;;;5085955;28;20466;-88
2022/09/05 08:04:38;;;;;;;0.10;0.10;;;18.90;99.90;;;;;;5087942;28;20916;-88
2022/09/05 08:07:06;;;;;;;0.10;0.10;;;19.00;99.90;;;;;;5105991;28;20430;-89
2022/09/05 08:09:50;;;;;;;0.10;0.10;;;19.00;99.90;;;;;;5106539;28;20434;-88
2022/09/05 08:12:29;;;;;;;0.10;0.10;;;19.20;99.90;;;;;;5101805;28;20506;-91
2022/09/05 08:15:13;;;;;;;0.10;0.10;;;19.20;99.90;;;;;;5114825;27;20531;-89
2022/09/05 08:18:14;;;;;;;0.10;0.10;;;19.30;99.90;;;;;;5091020;28;20479;-89
2022/09/05 08:21:14;;;;;;;0.10;0.00;;;19.70;99.90;;;;;;5101000;28;20551;-89
2022/09/05 08:23:57;;;;;;;0.10;0.00;;;19.60;99.90;;;;;;5058550;28;20462;-88
2022/09/05 08:26:44;;;;;;;0.10;0.10;;;19.80;99.90;;;;;;5096485;28;20929;-88
2022/09/05 08:29:40;;;;;;;0.10;0.10;;;19.90;99.90;;;;;;5097916;28;20586;-89
2022/09/05 08:32:14;;;;;;;0.10;0.10;;;19.90;99.90;;;;;;5093516;28;20976;-83
2022/09/05 08:34:46;;;;;;;0.10;0.00;;;20.00;99.90;;;;;;5078741;28;20489;-86
2022/09/05 08:37:17;;;;;;;0.10;0.10;;;20.30;99.90;;;;;;5104981;28;20438;-82
2022/09/05 08:39:46;;;;;;;0.10;0.00;;;20.40;99.90;;;;;;5097188;28;20446;-90
2022/09/05 08:42:41;;;;;;;0.10;0.00;;;20.50;99.90;;;;;;5091645;28;20524;-89
2022/09/05 08:45:25;;;;;;;0.10;0.10;;;20.50;99.90;;;;;;5102748;28;20804;-89
2022/09/05 08:48:09;;;;;;;0.10;0.00;;;20.70;99.90;;;;;;5107884;28;20469;-90
2022/09/05 08:51:01;;;;;;;0.10;0.00;;;21.00;99.90;;;;;;5104441;28;20794;-96
2022/09/05 08:54:00;;;;;;;0.10;0.00;;;21.30;99.90;;;;;;5111071;28;20492;-95
2022/09/05 08:56:52;;;;;;;0.10;0.00;;;21.30;99.90;;;;;;5100307;28;20938;-95
2022/09/05 08:59:46;;;;;;;0.10;0.00;;;21.50;99.90;;;;;;5098363;28;20443;-96
2022/09/05 09:02:40;;;;;;;0.10;0.10;;;21.70;99.90;;;;;;5113592;28;20445;-96
2022/09/05 09:05:20;;;;;;;0.10;0.00;;;21.80;99.90;;;;;;5104588;28;20458;-95
2022/09/05 09:08:04;;;;;;;0.10;0.00;;;22.00;99.90;;;;;;5119367;27;20432;-96
2022/09/05 09:10:58;;;;;;;0.10;0.00;;;22.00;99.90;;;;;;5103159;28;20451;-96
2022/09/05 09:13:53;;;;;;;0.10;0.00;;;22.20;99.90;;;;;;5100273;27;20467;-96
2022/09/05 09:16:32;;;;;;;0.10;0.00;;;22.50;99.90;;;;;;5107178;28;20392;-93
2022/09/05 09:19:22;;;;;;;0.10;0.00;;;22.70;99.90;;;;;;5115076;28;20427;-94
2022/09/05 09:22:17;;;;;;;0.10;0.00;;;23.00;99.90;;;;;;5121204;28;20479;-95
2022/09/05 09:24:42;;;;;;;0.10;0.00;;;23.20;99.90;;;;;;5116817;28;20430;-96
2022/09/05 09:27:14;;;;;;;0.10;0.00;;;23.30;99.90;;;;;;5121322;28;20414;-95
2022/09/05 09:29:41;;;;;;;0.10;0.00;;;23.30;99.90;;;;;;5121392;28;20192;-96
2022/09/05 09:32:16;;;;;;;0.10;0.00;;;23.30;99.90;;;;;;5119849;28;20457;-94
2022/09/05 09:34:52;;;;;;;0.10;0.00;;;23.50;99.90;;;;;;5101991;27;20559;-95
2022/09/05 09:37:39;;;;;;;0.10;0.00;;;23.90;99.90;;;;;;5107875;27;20414;-96
2022/09/05 09:40:42;;;;;;;0.10;0.00;;;24.00;99.90;;;;;;5120172;27;20536;-96
2022/09/05 09:43:28;;;;;;;0.10;0.00;;;23.50;99.90;;;;;;5122464;28;20416;-96
2022/09/05 09:46:26;;;;;;;0.10;0.00;;;23.00;99.90;;;;;;5104272;28;20426;-96
2022/09/05 09:49:16;;;;;;;0.10;0.00;;;22.70;99.90;;;;;;5092805;28;20422;-96
2022/09/05 09:51:54;;;;;;;0.10;0.00;;;22.50;99.90;;;;;;5120099;28;20891;-96
2022/09/05 09:54:58;;;;;;;0.10;0.00;;;22.40;99.90;;;;;;5119097;28;20585;-96
2022/09/05 09:57:45;;;;;;;0.10;0.00;;;22.50;99.90;;;;;;5105071;28;20998;-96
2022/09/05 10:00:20;;;;;;;0.10;0.00;;;22.70;99.90;;;;;;5121670;28;20893;-96
2022/09/05 10:03:30;;;;;;;0.10;0.00;;;22.80;99.90;;;;;;5120134;22;20503;-91
2022/09/05 10:06:34;;;;;;;0.10;0.00;;;22.90;99.90;;;;;;5053681;28;20469;-96
2022/09/05 10:09:33;;;;;;;0.10;0.00;;;23.00;99.90;;;;;;5048197;28;20430;-95
2022/09/05 10:12:17;;;;;;;0.10;0.00;;;23.80;99.90;;;;;;5052569;28;20468;-95
2022/09/05 10:14:59;;;;;;;0.10;0.00;;;24.10;99.90;;;;;;5055553;28;20483;-94
2022/09/05 10:17:38;;;;;;;0.10;0.00;;;23.50;99.90;;;;;;5055538;28;20509;-96
2022/09/05 10:20:19;;;;;;;0.10;0.00;;;23.20;99.90;;;;;;5045795;28;20433;-90
2022/09/05 10:23:04;;;;;;;0.10;0.00;;;22.90;99.90;;;;;;5048474;28;20448;-96
2022/09/05 10:25:53;;;;;;;0.10;0.00;;;22.90;99.90;;;;;;5048518;28;20456;-96
2022/09/05 10:28:33;;;;;;;0.10;0.00;;;22.70;99.90;;;;;;5093612;22;20538;-96
2022/09/05 10:31:21;;;;;;;0.10;0.00;;;23.00;99.90;;;;;;5073550;28;20536;-91
2022/09/05 10:34:09;;;;;;;0.10;0.00;;;22.90;99.90;;;;;;5082194;28;20539;-96
2022/09/05 10:36:37;;;;;;;0.10;0.00;;;23.00;99.90;;;;;;5074844;28;20632;-92
2022/09/05 10:39:16;;;;;;;0.10;0.00;;;23.70;99.90;;;;;;5075012;28;20912;-92
2022/09/05 10:41:50;;;;;;;0.10;0.00;;;24.00;99.90;;;;;;5077061;28;20432;-95
2022/09/05 10:44:32;;;;;;;0.10;0.00;;;24.70;99.90;;;;;;5060758;28;20508;-96
2022/09/05 10:47:26;;;;;;;0.10;0.00;;;24.70;99.90;;;;;;5070751;28;20523;-94
2022/09/05 10:50:24;;;;;;;0.10;0.00;;;23.90;99.90;;;;;;5070201;28;20479;-96
2022/09/05 10:52:51;;;;;;;0.10;0.00;;;23.60;99.90;;;;;;5062638;28;20435;-87
2022/09/05 10:55:24;;;;;;;0.10;0.00;;;24.30;99.90;;;;;;5075217;28;20451;-95
2022/09/05 10:58:12;;;;;;;0.10;0.00;;;24.60;99.90;;;;;;5065197;28;20956;-92
2022/09/05 11:00:47;;;;;;;0.10;0.00;;;24.90;99.90;;;;;;5068017;28;20452;-96
2022/09/05 11:03:21;;;;;;;0.10;0.00;;;25.20;99.90;;;;;;5070800;28;20439;-89
2022/09/05 11:06:11;;;;;;;0.10;0.00;;;25.30;99.90;;;;;;5070593;28;20440;-87
2022/09/05 11:09:06;;;;;;;0.10;0.00;;;24.90;99.90;;;;;;5067256;28;20526;-85
2022/09/05 11:11:44;;;;;;;0.10;0.00;;;24.80;99.90;;;;;;5067629;28;20436;-86
2022/09/05 11:14:34;;;;;;;0.10;0.00;;;24.70;99.90;;;;;;5065974;28;20502;-87
2022/09/05 11:17:07;;;;;;;0.10;0.00;;;24.70;99.90;;;;;;5068284;28;20481;-88
2022/09/05 11:19:43;;;;;;;0.10;0.00;;;25.00;99.90;;;;;;5064503;28;20444;-86
2022/09/05 11:22:12;;;;;;;0.10;0.00;;;26.10;98.90;;;;;;5068456;28;20443;-90
2022/09/05 11:25:09;;;;;;;0.10;0.00;;;26.80;98.30;;;;;;5068868;28;20437;-89
2022/09/05 11:27:40;;;;;;;0.10;0.00;;;26.80;96.00;;;;;;5066842;28;20450;-87
2022/09/05 11:30:09;;;;;;;0.10;0.00;;;26.40;96.50;;;;;;5058601;28;20471;-88
2022/09/05 11:33:14;;;;;;;0.10;0.00;;;26.80;96.60;;;;;;5061185;28;20440;-87
2022/09/05 11:36:01;;;;;;;0.10;0.00;;;26.30;94.50;;;;;;5064434;28;20785;-86
2022/09/05 11:38:33;;;;;;;0.10;0.00;;;26.60;95.30;;;;;;5061090;28;20434;-86
2022/09/05 11:41:18;;;;;;;0.10;0.00;;;26.20;94.60;;;;;;5066358;28;20444;-86
2022/09/05 11:44:07;;;;;;;0.10;0.00;;;26.50;94.40;;;;;;5067110;28;20440;-87
2022/09/05 11:46:39;;;;;;;0.10;0.00;;;26.90;92.80;;;;;;5077735;28;20853;-86
2022/09/05 11:49:42;;;;;;;0.10;0.00;;;26.30;93.90;;;;;;5065560;28;20447;-87
2022/09/05 11:52:29;;;;;;;0.10;0.00;;;26.80;94.50;;;;;;5068219;28;20538;-88
2022/09/05 11:55:25;;;;;;;0.10;0.00;;;26.30;94.40;;;;;;5065590;28;20575;-82
2022/09/05 11:58:20;;;;;;;0.10;0.00;;;27.10;94.30;;;;;;5066775;28;20440;-89
2022/09/05 12:01:17;;;;;;;0.10;0.00;;;26.50;94.30;;;;;;5068189;28;20480;-87
2022/09/05 12:04:15;;;;;;;0.10;0.00;;;26.50;95.40;;;;;;5060466;28;20442;-86
2022/09/05 12:06:56;;;;;;;0.10;0.00;;;25.30;95.30;;;;;;5060625;28;20497;-88
2022/09/05 12:09:52;;;;;;;0.10;0.00;;;25.20;96.40;;;;;;5063721;28;20443;-89
2022/09/05 12:12:35;;;;;;;0.10;0.00;;;25.10;96.60;;;;;;5065115;28;20432;-85
2022/09/05 12:15:33;;;;;;;0.10;0.00;;;25.70;96.30;;;;;;5066234;28;20512;-90
2022/09/05 12:18:10;;;;;;;0.10;0.00;;;25.90;95.50;;;;;;5064979;28;20448;-88
2022/09/05 12:20:50;;;;;;;0.10;0.00;;;25.60;94.90;;;;;;5067737;28;20447;-87
2022/09/05 12:23:41;;;;;;;0.10;0.00;;;25.20;96.20;;;;;;5056323;28;20443;-87
2022/09/05 12:26:35;;;;;;;0.10;0.00;;;24.50;95.80;;;;;;5066641;28;20444;-86
2022/09/05 12:29:08;;;;;;;0.10;0.00;;;24.00;97.30;;;;;;5067801;28;21113;-82
2022/09/05 12:31:57;;;;;;;0.10;0.00;;;24.50;96.70;;;;;;5066724;28;20454;-87
2022/09/05 12:34:50;;;;;;;0.10;0.00;;;24.90;96.50;;;;;;5060005;28;20484;-90
2022/09/05 12:37:22;;;;;;;0.10;0.00;;;25.40;96.60;;;;;;5068111;28;21150;-86
2022/09/05 12:40:08;;;;;;;0.10;0.00;;;25.50;94.80;;;;;;5067545;28;20936;-94
2022/09/05 12:42:58;;;;;;;0.10;0.00;;;24.80;96.20;;;;;;5070517;28;20424;-84
2022/09/05 12:45:43;;;;;;;0.10;0.00;;;24.90;96.00;;;;;;5070020;28;20869;-88
2022/09/05 12:48:40;;;;;;;0.10;0.00;;;24.80;96.00;;;;;;5060281;28;20441;-90
2022/09/05 12:51:20;;;;;;;0.10;0.00;;;24.70;95.90;;;;;;5063353;28;20460;-88
2022/09/05 12:53:51;;;;;;;0.10;0.00;;;24.80;96.80;;;;;;5065845;28;20476;-88
2022/09/05 12:56:25;;;;;;;0.10;0.00;;;24.50;96.10;;;;;;5069172;28;20677;-87
2022/09/05 12:58:53;;;;;;;0.10;0.00;;;25.00;96.80;;;;;;5069163;28;20444;-85
2022/09/05 13:01:37;;;;;;;0.10;0.00;;;25.40;95.60;;;;;;5069066;28;20452;-86
2022/09/05 13:04:17;;;;;;;0.10;0.00;;;25.70;95.20;;;;;;5053600;28;20864;-88
2022/09/05 13:06:53;;;;;;;0.10;0.00;;;27.10;95.60;;;;;;5062613;28;20449;-85
2022/09/05 13:09:27;;;;;;;0.10;0.00;;;28.00;93.50;;;;;;5058502;28;20484;-86
2022/09/05 13:12:15;;;;;;;0.10;0.00;;;28.40;92.50;;;;;;5067490;28;20450;-83
2022/09/05 13:15:18;;;;;;;0.10;0.10;;;27.50;93.20;;;;;;5070427;28;21048;-89
2022/09/05 13:17:52;;;;;;;0.10;0.00;;;27.20;92.70;;;;;;5066345;28;20519;-88
2022/09/05 13:20:31;;;;;;;0.10;0.00;;;26.50;94.50;;;;;;5071536;28;20573;-83
2022/09/05 13:23:01;;;;;;;0.10;0.00;;;25.60;95.60;;;;;;5070054;28;20540;-84
2022/09/05 13:25:29;;;;;;;0.10;0.00;;;24.90;97.40;;;;;;5070632;28;20585;-86
2022/09/05 13:28:05;;;;;;;0.10;0.00;;;24.80;98.40;;;;;;5069865;28;20439;-86
2022/09/05 13:30:35;;;;;;;0.10;0.00;;;24.80;98.10;;;;;;5065357;28;20593;-88
2022/09/05 13:33:37;;;;;;;0.10;0.00;;;24.70;98.50;;;;;;5069669;28;20436;-83
2022/09/05 13:36:04;;;;;;;0.10;0.00;;;24.50;97.30;;;;;;5056840;28;20524;-87
2022/09/05 13:38:42;;;;;;;0.10;0.00;;;24.50;98.20;;;;;;5069622;28;20808;-87
2022/09/05 13:41:21;;;;;;;0.10;0.00;;;24.30;98.30;;;;;;5068055;28;20446;-84
2022/09/05 13:43:47;;;;;;;0.10;0.00;;;23.80;97.50;;;;;;5069947;28;20491;-87
2022/09/05 13:46:53;;;;;;;0.10;0.00;;;23.90;98.60;;;;;;5065205;28;20841;-83
2022/09/05 13:49:21;;;;;;;0.10;0.00;;;23.70;98.30;;;;;;5069635;28;20473;-85
2022/09/05 13:52:04;;;;;;;0.10;0.00;;;23.50;98.30;;;;;;5066965;28;20446;-86
2022/09/05 13:54:39;;;;;;;0.10;0.00;;;23.50;98.80;;;;;;5062215;28;20487;-87
2022/09/05 13:57:26;;;;;;;0.10;0.00;;;23.50;99.10;;;;;;5064438;28;21214;-86
2022/09/05 14:00:16;;;;;;;0.10;0.00;;;23.50;98.90;;;;;;5065001;28;20452;-83
2022/09/05 14:03:01;;;;;;;0.10;0.00;;;23.60;98.90;;;;;;5068672;28;20516;-84
2022/09/05 14:05:48;;;;;;;0.10;0.00;;;23.50;99.60;;;;;;5063976;28;20871;-87
2022/09/05 14:08:52;;;;;;;0.10;0.00;;;23.60;99.90;;;;;;5068706;28;20429;-86
2022/09/05 14:11:55;;;;;;;0.10;0.00;;;23.40;99.90;;;;;;5071613;28;20460;-87
2022/09/05 14:14:56;;;;;;;0.10;0.00;;;23.30;99.10;;;;;;5069712;28;20974;-85
2022/09/05 14:17:29;;;;;;;0.10;0.00;;;23.00;99.10;;;;;;5051292;28;20433;-85